createdAt,value
2023-02-17T00:04:15.767Z,1.10
2023-02-17T00:09:17.652Z,1.15
2023-02-17T00:14:19.565Z,1.73
2023-02-17T00:19:25.290Z,1.27
2023-02-17T00:24:29.657Z,1.23
2023-02-17T00:29:32.018Z,1.67
2023-02-17T00:34:33.935Z,1.10
2023-02-17T00:39:35.915Z,0.88
2023-02-17T00:44:37.660Z,0.90
2023-02-17T00:49:39.324Z,1.00
2023-02-17T00:54:42.255Z,0.70
2023-02-17T00:59:44.208Z,0.77
2023-02-17T01:04:46.264Z,0.65
2023-02-17T01:09:48.387Z,0.77
2023-02-17T01:14:50.569Z,0.88
2023-02-17T01:19:52.539Z,0.80
2023-02-17T01:24:54.460Z,1.08
2023-02-17T01:29:56.391Z,0.70
2023-02-17T01:34:58.419Z,1.15
2023-02-17T01:40:00.259Z,1.10
2023-02-17T01:45:20.028Z,1.10
2023-02-17T01:50:26.153Z,0.73
2023-02-17T01:55:28.510Z,0.75
2023-02-17T02:00:34.023Z,0.57
2023-02-17T02:05:37.828Z,0.70
2023-02-17T02:10:40.180Z,0.95
2023-02-17T02:15:52.813Z,0.65
2023-02-17T02:21:07.688Z,0.70
2023-02-17T02:26:15.593Z,0.85
2023-02-17T02:31:36.277Z,0.68
2023-02-17T02:36:42.036Z,0.93
2023-02-17T02:41:55.133Z,0.70
2023-02-17T02:46:58.820Z,0.70
2023-02-17T02:52:22.362Z,0.60
2023-02-17T02:57:50.115Z,0.77
2023-02-17T03:02:58.639Z,1.00
2023-02-17T03:08:15.939Z,0.70
2023-02-17T03:13:18.956Z,0.77
2023-02-17T03:18:20.867Z,0.80
2023-02-17T03:23:22.802Z,0.77
2023-02-17T03:28:25.192Z,0.63
2023-02-17T03:33:26.902Z,0.85
2023-02-17T03:38:28.781Z,0.60
2023-02-17T03:43:30.477Z,0.68
2023-02-17T03:48:32.531Z,1.02
2023-02-17T03:53:34.427Z,0.50
2023-02-17T03:58:36.228Z,0.90
2023-02-17T04:03:38.618Z,0.70
2023-02-17T04:08:41.038Z,0.63
2023-02-17T04:13:42.832Z,0.70
2023-02-17T04:18:44.860Z,0.77
2023-02-17T04:23:46.697Z,0.90
2023-02-17T04:28:48.758Z,0.90
2023-02-17T04:33:50.506Z,0.80
2023-02-17T04:38:55.466Z,0.68
2023-02-17T04:43:57.367Z,0.75
2023-02-17T04:48:59.162Z,0.77
2023-02-17T04:54:00.949Z,0.65
2023-02-17T04:59:02.881Z,0.73
2023-02-17T05:04:04.921Z,0.63
2023-02-17T05:09:06.766Z,0.73
2023-02-17T05:14:09.005Z,0.60
2023-02-17T05:19:11.283Z,0.50
2023-02-17T05:24:13.061Z,0.50
2023-02-17T05:29:14.956Z,0.60
2023-02-17T05:34:16.907Z,0.50
2023-02-17T05:39:18.720Z,0.50
2023-02-17T05:44:21.010Z,0.40
2023-02-17T05:49:22.882Z,0.57
2023-02-17T05:54:24.777Z,0.50
2023-02-17T05:59:26.840Z,0.60
2023-02-17T06:04:28.794Z,0.80
2023-02-17T06:09:30.683Z,0.77
2023-02-17T06:14:32.691Z,0.85
2023-02-17T06:19:34.484Z,0.60
2023-02-17T06:24:36.277Z,0.40
2023-02-17T06:29:38.144Z,0.50
2023-02-17T06:34:39.916Z,0.60
2023-02-17T06:39:41.705Z,0.50
2023-02-17T06:44:43.550Z,0.50
2023-02-17T06:49:45.443Z,0.40
2023-02-17T06:54:47.980Z,0.50
2023-02-17T06:59:49.970Z,0.63
2023-02-17T07:04:51.958Z,0.68
2023-02-17T07:09:53.899Z,0.50
2023-02-17T07:14:56.185Z,0.68
2023-02-17T07:19:58.130Z,0.40
2023-02-17T07:25:00.227Z,0.65
2023-02-17T07:30:02.314Z,0.40
2023-02-17T07:35:04.279Z,0.80
2023-02-17T07:40:06.885Z,0.50
2023-02-17T07:45:08.828Z,0.68
2023-02-17T07:50:10.893Z,0.52
2023-02-17T07:55:12.930Z,0.60
2023-02-17T08:00:15.480Z,0.50
2023-02-17T08:05:17.420Z,0.80
2023-02-17T08:10:37.742Z,1.05
2023-02-17T08:15:39.674Z,1.00
2023-02-17T08:20:41.700Z,0.60
2023-02-17T08:25:43.536Z,0.98
2023-02-17T08:30:45.531Z,1.00
2023-02-17T08:35:47.960Z,1.13
2023-02-17T08:40:49.825Z,0.82
2023-02-17T08:45:51.979Z,0.90
2023-02-17T08:50:54.313Z,1.30
2023-02-17T08:55:56.419Z,1.50
2023-02-17T09:00:58.399Z,1.30
2023-02-17T09:06:00.466Z,1.00
2023-02-17T09:11:02.647Z,1.00
2023-02-17T09:16:05.526Z,1.67
2023-02-17T09:21:10.211Z,1.20
2023-02-17T09:26:14.670Z,2.20
2023-02-17T09:31:22.665Z,2.05
2023-02-17T09:36:28.347Z,1.55
2023-02-17T09:41:48.043Z,1.40
2023-02-17T09:47:02.402Z,1.05
2023-02-17T09:52:16.889Z,1.10
2023-02-17T09:57:22.103Z,1.10
2023-02-17T10:02:29.560Z,0.90
2023-02-17T10:07:42.259Z,1.20
2023-02-17T10:12:52.428Z,1.23
2023-02-17T10:18:02.928Z,1.40
2023-02-17T10:23:10.828Z,1.10
2023-02-17T10:28:26.671Z,1.13
2023-02-17T10:34:03.546Z,0.98
2023-02-17T10:39:25.039Z,0.88
2023-02-17T10:44:27.051Z,0.75
2023-02-17T10:49:37.228Z,0.98
2023-02-17T10:54:54.600Z,1.10
2023-02-17T10:59:57.573Z,1.33
2023-02-17T11:05:00.526Z,0.90
2023-02-17T11:10:19.803Z,0.95
2023-02-17T11:15:25.870Z,0.70
2023-02-17T11:20:34.198Z,0.90
2023-02-17T11:25:38.179Z,1.10
2023-02-17T11:30:49.128Z,0.70
2023-02-17T11:35:54.568Z,0.77
2023-02-17T11:41:04.902Z,1.40
2023-02-17T11:46:39.256Z,0.85
2023-02-17T11:52:08.622Z,0.70
2023-02-17T11:57:29.043Z,0.80
2023-02-17T12:03:05.197Z,0.77
2023-02-17T12:08:24.237Z,0.65
2023-02-17T12:13:45.794Z,0.80
2023-02-17T12:19:02.123Z,0.63
2023-02-17T12:24:22.201Z,0.50
2023-02-17T12:30:07.866Z,0.60
2023-02-17T12:35:56.405Z,0.70
2023-02-17T12:41:15.396Z,0.75
2023-02-17T12:46:22.821Z,0.60
2023-02-17T12:51:50.806Z,0.88
2023-02-17T12:57:14.866Z,0.50
2023-02-17T13:02:22.624Z,0.52
2023-02-17T13:07:27.450Z,0.60
2023-02-17T13:12:29.343Z,0.98
2023-02-17T13:17:53.496Z,0.50
2023-02-17T13:23:08.066Z,0.47
2023-02-17T13:28:19.132Z,0.90
2023-02-17T13:33:20.934Z,0.50
2023-02-17T13:38:29.984Z,0.57
2023-02-17T13:43:41.150Z,0.50
2023-02-17T13:48:43.038Z,0.57
2023-02-17T13:53:51.971Z,0.55
2023-02-17T13:58:54.183Z,0.40
2023-02-17T14:03:56.978Z,0.28
2023-02-17T14:08:59.039Z,0.30
2023-02-17T14:14:02.367Z,0.45
2023-02-17T14:19:08.015Z,0.45
2023-02-17T14:24:25.868Z,0.45
2023-02-17T14:29:42.423Z,0.47
2023-02-17T14:34:44.590Z,0.57
2023-02-17T14:39:46.365Z,0.30
2023-02-17T14:44:48.234Z,0.50
2023-02-17T14:49:50.240Z,0.50
2023-02-17T14:54:52.520Z,0.30
2023-02-17T14:59:57.949Z,0.60
2023-02-17T15:05:00.035Z,0.32
2023-02-17T15:10:02.362Z,0.52
2023-02-17T15:15:04.367Z,0.40
2023-02-17T15:20:06.899Z,0.55
2023-02-17T15:25:13.234Z,0.60
2023-02-17T15:30:20.487Z,0.50
2023-02-17T15:35:25.000Z,0.63
2023-02-17T15:40:28.855Z,0.40
2023-02-17T15:45:31.158Z,0.50
2023-02-17T15:50:32.981Z,0.50
2023-02-17T15:55:35.083Z,0.50
2023-02-17T16:00:36.867Z,0.47
2023-02-17T16:05:38.954Z,0.55
2023-02-17T16:10:42.762Z,0.50
2023-02-17T16:15:45.214Z,0.70
2023-02-17T16:20:47.604Z,0.50
2023-02-17T16:25:50.713Z,0.65
2023-02-17T16:30:52.669Z,0.63
2023-02-17T16:35:54.723Z,0.40
2023-02-17T16:40:56.665Z,0.52
2023-02-17T16:46:01.544Z,0.50
2023-02-17T16:51:03.580Z,0.60
2023-02-17T16:56:28.798Z,0.30
2023-02-17T17:01:30.697Z,0.65
2023-02-17T17:06:32.714Z,0.30
2023-02-17T17:11:34.692Z,0.47
2023-02-17T17:16:37.223Z,0.30
2023-02-17T17:21:39.074Z,0.50
2023-02-17T17:26:46.552Z,0.50
2023-02-17T17:31:48.530Z,0.40
2023-02-17T17:36:50.458Z,0.40
2023-02-17T17:41:52.422Z,0.40
2023-02-17T17:46:54.728Z,0.40
2023-02-17T17:51:56.749Z,0.30
2023-02-17T17:56:58.734Z,0.30
2023-02-17T18:02:00.524Z,0.20
2023-02-17T18:07:02.506Z,0.25
2023-02-17T18:12:14.341Z,0.60
2023-02-17T18:17:18.410Z,0.30
2023-02-17T18:22:20.380Z,0.30
2023-02-17T18:27:23.281Z,0.30
2023-02-17T18:32:25.322Z,0.40
2023-02-17T18:37:27.506Z,0.25
2023-02-17T18:42:29.318Z,0.30
2023-02-17T18:47:31.985Z,0.65
2023-02-17T18:52:33.969Z,0.30
2023-02-17T18:57:36.891Z,0.30
2023-02-17T19:02:40.498Z,0.25
2023-02-17T19:07:43.116Z,0.22
2023-02-17T19:12:45.042Z,0.20
2023-02-17T19:17:49.009Z,0.20
2023-02-17T19:22:51.042Z,0.30
2023-02-17T19:27:53.172Z,0.30
2023-02-17T19:32:55.056Z,0.30
2023-02-17T19:37:56.955Z,0.50
2023-02-17T19:42:59.097Z,0.30
2023-02-17T19:48:01.248Z,0.30
2023-02-17T19:53:03.277Z,0.30
2023-02-17T19:58:05.781Z,0.15
2023-02-17T20:03:07.913Z,0.45
2023-02-17T20:08:09.984Z,0.20
2023-02-17T20:13:11.846Z,0.20
2023-02-17T20:18:13.994Z,0.22
2023-02-17T20:23:16.346Z,0.40
2023-02-17T20:28:18.696Z,0.60
2023-02-17T20:33:20.850Z,0.50
2023-02-17T20:38:23.027Z,0.43
2023-02-17T20:43:25.349Z,0.25
2023-02-17T20:48:28.229Z,0.40
2023-02-17T20:53:30.263Z,0.88
2023-02-17T20:58:32.802Z,0.40
2023-02-17T21:03:34.942Z,0.45
2023-02-17T21:08:36.907Z,0.30
2023-02-17T21:13:38.736Z,0.22
2023-02-17T21:18:40.827Z,0.20
2023-02-17T21:23:43.093Z,0.30
2023-02-17T21:28:46.457Z,0.20
2023-02-17T21:33:48.694Z,0.40
2023-02-17T21:38:50.923Z,0.45
2023-02-17T21:44:11.551Z,0.30
2023-02-17T21:49:13.920Z,0.40
2023-02-17T21:54:16.221Z,0.57
2023-02-17T21:59:18.903Z,0.30
2023-02-17T22:04:21.186Z,0.30
2023-02-17T22:09:23.248Z,0.65
2023-02-17T22:14:25.052Z,0.35
2023-02-17T22:19:29.801Z,0.30
2023-02-17T22:24:33.290Z,0.35
2023-02-17T22:29:35.057Z,0.30
2023-02-17T22:34:37.162Z,0.20
2023-02-17T22:39:38.997Z,0.30
2023-02-17T22:44:40.902Z,0.20
2023-02-17T22:49:43.308Z,0.20
2023-02-17T22:54:45.098Z,0.40
2023-02-17T22:59:47.145Z,0.30
2023-02-17T23:04:49.292Z,0.40
2023-02-17T23:09:51.314Z,0.20
2023-02-17T23:14:53.315Z,0.25
2023-02-17T23:19:55.362Z,0.25
2023-02-17T23:24:57.338Z,0.30
2023-02-17T23:29:59.181Z,0.30
2023-02-17T23:35:01.176Z,0.32
2023-02-17T23:40:04.093Z,0.50
2023-02-17T23:45:06.357Z,0.40
2023-02-17T23:50:08.900Z,0.40
2023-02-17T23:55:10.915Z,0.47
